sensor_id;sensor_type;location;lat;lon;timestamp;pressure;altitude;pressure_sealevel;temperature;humidity
47636;BME280;33364;50.766;15.338;2023-02-04T00:01:00;94560.19;;;1.03;79.66
47636;BME280;33364;50.766;15.338;2023-02-04T00:03:29;94566.03;;;1.12;79.25
47636;BME280;33364;50.766;15.338;2023-02-04T00:05:54;94549.53;;;1.05;79.97
47636;BME280;33364;50.766;15.338;2023-02-04T00:08:20;94557.53;;;0.97;79.77
47636;BME280;33364;50.766;15.338;2023-02-04T00:10:46;94559.59;;;1.08;79.93
47636;BME280;33364;50.766;15.338;2023-02-04T00:13:12;94593.19;;;1.11;79.88
47636;BME280;33364;50.766;15.338;2023-02-04T00:15:37;94607.88;;;1.05;80.96
47636;BME280;33364;50.766;15.338;2023-02-04T00:18:03;94620.19;;;1.12;80.42
47636;BME280;33364;50.766;15.338;2023-02-04T00:20:32;94667.25;;;1.05;79.62
47636;BME280;33364;50.766;15.338;2023-02-04T00:22:58;94669.91;;;0.83;79.83
47636;BME280;33364;50.766;15.338;2023-02-04T00:25:23;94692.50;;;0.63;78.97
47636;BME280;33364;50.766;15.338;2023-02-04T00:27:50;94699.88;;;0.52;78.28
47636;BME280;33364;50.766;15.338;2023-02-04T00:30:15;94702.22;;;0.26;79.42
47636;BME280;33364;50.766;15.338;2023-02-04T00:32:41;94708.81;;;0.22;78.03
47636;BME280;33364;50.766;15.338;2023-02-04T00:35:07;94716.13;;;0.11;77.47
47636;BME280;33364;50.766;15.338;2023-02-04T00:37:33;94735.09;;;-0.02;77.46
47636;BME280;33364;50.766;15.338;2023-02-04T00:39:59;94720.41;;;-0.03;77.29
47636;BME280;33364;50.766;15.338;2023-02-04T00:42:25;94731.41;;;-0.07;76.17
47636;BME280;33364;50.766;15.338;2023-02-04T00:44:51;94728.28;;;-0.17;76.75
47636;BME280;33364;50.766;15.338;2023-02-04T00:47:17;94753.88;;;-0.28;77.42
47636;BME280;33364;50.766;15.338;2023-02-04T00:49:43;94746.50;;;-0.24;76.85
47636;BME280;33364;50.766;15.338;2023-02-04T00:52:09;94768.19;;;-0.24;77.79
47636;BME280;33364;50.766;15.338;2023-02-04T00:54:34;94766.94;;;-0.28;76.81
47636;BME280;33364;50.766;15.338;2023-02-04T00:57:00;94766.03;;;-0.35;77.09
47636;BME280;33364;50.766;15.338;2023-02-04T00:59:26;94808.72;;;-0.28;77.75
47636;BME280;33364;50.766;15.338;2023-02-04T01:01:52;94786.91;;;-0.35;76.04
47636;BME280;33364;50.766;15.338;2023-02-04T01:04:17;94796.47;;;-0.42;76.79
47636;BME280;33364;50.766;15.338;2023-02-04T01:06:43;94794.38;;;-0.47;78.14
47636;BME280;33364;50.766;15.338;2023-02-04T01:09:09;94783.94;;;-0.47;78.09
47636;BME280;33364;50.766;15.338;2023-02-04T01:11:35;94794.47;;;-0.55;78.45
47636;BME280;33364;50.766;15.338;2023-02-04T01:14:01;94838.47;;;-0.52;79.77
47636;BME280;33364;50.766;15.338;2023-02-04T01:16:27;94827.94;;;-0.59;79.63
47636;BME280;33364;50.766;15.338;2023-02-04T01:18:52;94843.50;;;-0.65;79.34
47636;BME280;33364;50.766;15.338;2023-02-04T01:21:22;94850.38;;;-0.87;78.64
47636;BME280;33364;50.766;15.338;2023-02-04T01:23:47;94869.16;;;-0.92;79.31
47636;BME280;33364;50.766;15.338;2023-02-04T01:26:16;94879.13;;;-0.96;78.00
47636;BME280;33364;50.766;15.338;2023-02-04T01:28:41;94848.72;;;-0.88;77.12
47636;BME280;33364;50.766;15.338;2023-02-04T01:31:07;94859.22;;;-0.97;77.73
47636;BME280;33364;50.766;15.338;2023-02-04T01:33:33;94873.22;;;-0.89;78.00
47636;BME280;33364;50.766;15.338;2023-02-04T01:35:59;94869.78;;;-0.90;78.34
47636;BME280;33364;50.766;15.338;2023-02-04T01:38:24;94891.06;;;-1.01;78.83
47636;BME280;33364;50.766;15.338;2023-02-04T01:40:50;94871.41;;;-1.12;78.33
47636;BME280;33364;50.766;15.338;2023-02-04T01:43:16;94876.81;;;-1.14;79.24
47636;BME280;33364;50.766;15.338;2023-02-04T01:45:44;94878.22;;;-1.03;78.87
47636;BME280;33364;50.766;15.338;2023-02-04T01:48:10;94887.28;;;-0.99;81.50
47636;BME280;33364;50.766;15.338;2023-02-04T01:50:38;94876.06;;;-0.99;79.58
47636;BME280;33364;50.766;15.338;2023-02-04T01:53:04;94892.16;;;-0.96;79.58
47636;BME280;33364;50.766;15.338;2023-02-04T01:55:31;94886.09;;;-1.11;80.42
47636;BME280;33364;50.766;15.338;2023-02-04T01:57:58;94914.22;;;-1.06;81.99
47636;BME280;33364;50.766;15.338;2023-02-04T02:00:29;94904.06;;;-1.24;81.17
47636;BME280;33364;50.766;15.338;2023-02-04T02:02:56;94924.28;;;-1.26;82.02
47636;BME280;33364;50.766;15.338;2023-02-04T02:05:52;94932.22;;;-1.20;81.14
47636;BME280;33364;50.766;15.338;2023-02-04T02:08:19;94957.00;;;-1.16;79.90
47636;BME280;33364;50.766;15.338;2023-02-04T02:10:46;94936.00;;;-1.22;79.99
47636;BME280;33364;50.766;15.338;2023-02-04T02:13:15;94964.22;;;-1.34;79.63
47636;BME280;33364;50.766;15.338;2023-02-04T02:15:42;94987.53;;;-1.33;79.99
47636;BME280;33364;50.766;15.338;2023-02-04T02:18:08;94993.75;;;-1.34;79.83
47636;BME280;33364;50.766;15.338;2023-02-04T02:20:35;95014.69;;;-1.58;79.97
47636;BME280;33364;50.766;15.338;2023-02-04T02:23:19;95023.50;;;-1.76;80.72
47636;BME280;33364;50.766;15.338;2023-02-04T02:25:48;95042.56;;;-1.83;79.97
47636;BME280;33364;50.766;15.338;2023-02-04T02:28:16;95052.19;;;-1.92;80.46
47636;BME280;33364;50.766;15.338;2023-02-04T02:30:43;95076.25;;;-1.98;79.91
47636;BME280;33364;50.766;15.338;2023-02-04T02:33:11;95094.47;;;-2.15;80.12
47636;BME280;33364;50.766;15.338;2023-02-04T02:35:40;95095.44;;;-2.24;79.46
47636;BME280;33364;50.766;15.338;2023-02-04T02:38:09;95106.38;;;-2.20;79.33
47636;BME280;33364;50.766;15.338;2023-02-04T02:40:36;95120.19;;;-2.20;79.30
47636;BME280;33364;50.766;15.338;2023-02-04T02:43:02;95123.91;;;-2.23;78.39
47636;BME280;33364;50.766;15.338;2023-02-04T02:45:30;95123.28;;;-2.16;77.67
47636;BME280;33364;50.766;15.338;2023-02-04T02:47:58;95127.19;;;-2.12;76.87
47636;BME280;33364;50.766;15.338;2023-02-04T02:50:27;95131.91;;;-2.16;77.10
47636;BME280;33364;50.766;15.338;2023-02-04T02:52:54;95156.16;;;-2.15;76.91
47636;BME280;33364;50.766;15.338;2023-02-04T02:55:22;95162.19;;;-2.07;78.29
47636;BME280;33364;50.766;15.338;2023-02-04T02:57:48;95188.50;;;-2.18;77.00
47636;BME280;33364;50.766;15.338;2023-02-04T03:00:20;95180.34;;;-2.31;78.04
47636;BME280;33364;50.766;15.338;2023-02-04T03:03:37;95175.81;;;-2.21;77.77
47636;BME280;33364;50.766;15.338;2023-02-04T03:05:41;95188.13;;;-2.40;78.72
47636;BME280;33364;50.766;15.338;2023-02-04T03:08:09;95204.25;;;-2.36;79.48
47636;BME280;33364;50.766;15.338;2023-02-04T03:10:35;95208.78;;;-2.46;78.28
47636;BME280;33364;50.766;15.338;2023-02-04T03:13:02;95222.91;;;-2.49;78.25
47636;BME280;33364;50.766;15.338;2023-02-04T03:15:29;95222.75;;;-2.47;78.36
47636;BME280;33364;50.766;15.338;2023-02-04T03:17:56;95228.56;;;-2.53;78.40
47636;BME280;33364;50.766;15.338;2023-02-04T03:20:24;95234.00;;;-2.47;78.22
47636;BME280;33364;50.766;15.338;2023-02-04T03:22:50;95246.75;;;-2.62;77.70
47636;BME280;33364;50.766;15.338;2023-02-04T03:25:16;95255.69;;;-2.64;77.40
47636;BME280;33364;50.766;15.338;2023-02-04T03:27:42;95273.44;;;-2.60;77.46
47636;BME280;33364;50.766;15.338;2023-02-04T03:30:09;95267.88;;;-2.65;76.64
47636;BME280;33364;50.766;15.338;2023-02-04T03:32:34;95294.41;;;-2.61;76.20
47636;BME280;33364;50.766;15.338;2023-02-04T03:35:00;95298.25;;;-2.65;75.21
47636;BME280;33364;50.766;15.338;2023-02-04T03:37:26;95318.00;;;-2.54;74.37
47636;BME280;33364;50.766;15.338;2023-02-04T03:39:52;95313.22;;;-2.67;74.00
47636;BME280;33364;50.766;15.338;2023-02-04T03:42:17;95310.56;;;-2.75;72.84
47636;BME280;33364;50.766;15.338;2023-02-04T03:44:43;95348.84;;;-2.86;72.89
47636;BME280;33364;50.766;15.338;2023-02-04T03:47:09;95363.84;;;-2.98;72.75
47636;BME280;33364;50.766;15.338;2023-02-04T03:49:35;95373.75;;;-3.01;72.39
47636;BME280;33364;50.766;15.338;2023-02-04T03:52:02;95372.06;;;-3.10;71.28
47636;BME280;33364;50.766;15.338;2023-02-04T03:54:27;95387.81;;;-3.12;71.29
47636;BME280;33364;50.766;15.338;2023-02-04T03:56:53;95394.47;;;-3.09;70.50
47636;BME280;33364;50.766;15.338;2023-02-04T03:59:19;95408.38;;;-3.19;69.83
47636;BME280;33364;50.766;15.338;2023-02-04T04:01:45;95411.34;;;-3.32;70.38
47636;BME280;33364;50.766;15.338;2023-02-04T04:04:10;95407.81;;;-3.40;71.11
47636;BME280;33364;50.766;15.338;2023-02-04T04:06:36;95436.69;;;-3.43;71.22
47636;BME280;33364;50.766;15.338;2023-02-04T04:09:02;95429.97;;;-3.36;70.27
47636;BME280;33364;50.766;15.338;2023-02-04T04:11:29;95438.13;;;-3.31;71.39
47636;BME280;33364;50.766;15.338;2023-02-04T04:13:55;95440.22;;;-3.35;71.48
47636;BME280;33364;50.766;15.338;2023-02-04T04:16:21;95434.94;;;-3.25;70.67
47636;BME280;33364;50.766;15.338;2023-02-04T04:18:47;95449.13;;;-3.19;71.56
47636;BME280;33364;50.766;15.338;2023-02-04T04:21:12;95451.88;;;-3.21;71.30
47636;BME280;33364;50.766;15.338;2023-02-04T04:23:38;95459.44;;;-3.27;72.31
47636;BME280;33364;50.766;15.338;2023-02-04T04:26:04;95465.47;;;-3.27;71.48
47636;BME280;33364;50.766;15.338;2023-02-04T04:28:30;95474.44;;;-3.21;72.75
47636;BME280;33364;50.766;15.338;2023-02-04T04:30:55;95479.50;;;-3.20;72.17
47636;BME280;33364;50.766;15.338;2023-02-04T04:33:21;95482.09;;;-3.20;71.54
47636;BME280;33364;50.766;15.338;2023-02-04T04:35:47;95485.06;;;-3.15;71.83
47636;BME280;33364;50.766;15.338;2023-02-04T04:38:13;95496.22;;;-3.04;72.14
47636;BME280;33364;50.766;15.338;2023-02-04T04:40:38;95515.03;;;-3.10;71.91
47636;BME280;33364;50.766;15.338;2023-02-04T04:43:04;95523.78;;;-3.11;72.21
47636;BME280;33364;50.766;15.338;2023-02-04T04:45:30;95526.16;;;-3.18;71.95
47636;BME280;33364;50.766;15.338;2023-02-04T04:47:56;95523.69;;;-3.20;73.24
47636;BME280;33364;50.766;15.338;2023-02-04T04:50:21;95532.19;;;-3.27;73.87
47636;BME280;33364;50.766;15.338;2023-02-04T04:52:47;95528.13;;;-3.30;73.82
47636;BME280;33364;50.766;15.338;2023-02-04T04:55:13;95546.31;;;-3.30;73.99
47636;BME280;33364;50.766;15.338;2023-02-04T04:57:39;95560.16;;;-3.39;73.05
47636;BME280;33364;50.766;15.338;2023-02-04T05:00:06;95565.91;;;-3.45;72.64
47636;BME280;33364;50.766;15.338;2023-02-04T05:02:32;95567.31;;;-3.51;72.25
47636;BME280;33364;50.766;15.338;2023-02-04T05:04:58;95579.88;;;-3.46;72.37
47636;BME280;33364;50.766;15.338;2023-02-04T05:07:24;95580.84;;;-3.47;71.83
47636;BME280;33364;50.766;15.338;2023-02-04T05:09:49;95575.09;;;-3.51;71.29
47636;BME280;33364;50.766;15.338;2023-02-04T05:12:15;95584.09;;;-3.45;71.81
47636;BME280;33364;50.766;15.338;2023-02-04T05:14:41;95601.75;;;-3.49;72.03
47636;BME280;33364;50.766;15.338;2023-02-04T05:17:07;95603.28;;;-3.56;72.17
47636;BME280;33364;50.766;15.338;2023-02-04T05:19:32;95610.50;;;-3.50;75.07
47636;BME280;33364;50.766;15.338;2023-02-04T05:21:58;95608.16;;;-3.43;71.38
47636;BME280;33364;50.766;15.338;2023-02-04T05:24:26;95615.56;;;-3.58;71.27
47636;BME280;33364;50.766;15.338;2023-02-04T05:26:52;95635.91;;;-3.44;71.20
47636;BME280;33364;50.766;15.338;2023-02-04T05:29:17;95633.72;;;-3.39;71.35
47636;BME280;33364;50.766;15.338;2023-02-04T05:31:44;95638.91;;;-3.39;71.09
47636;BME280;33364;50.766;15.338;2023-02-04T05:34:09;95654.13;;;-3.54;72.67
47636;BME280;33364;50.766;15.338;2023-02-04T05:36:35;95656.31;;;-3.49;72.29
47636;BME280;33364;50.766;15.338;2023-02-04T05:39:01;95658.38;;;-3.62;71.21
47636;BME280;33364;50.766;15.338;2023-02-04T05:41:27;95660.16;;;-3.63;71.53
47636;BME280;33364;50.766;15.338;2023-02-04T05:43:53;95670.97;;;-3.67;71.41
47636;BME280;33364;50.766;15.338;2023-02-04T05:46:19;95677.66;;;-3.65;71.84
47636;BME280;33364;50.766;15.338;2023-02-04T05:48:44;95685.84;;;-3.60;71.14
47636;BME280;33364;50.766;15.338;2023-02-04T05:51:10;95688.72;;;-3.63;70.59
47636;BME280;33364;50.766;15.338;2023-02-04T05:53:35;95702.41;;;-3.71;70.73
47636;BME280;33364;50.766;15.338;2023-02-04T05:56:01;95709.50;;;-3.53;69.53
47636;BME280;33364;50.766;15.338;2023-02-04T05:58:27;95715.41;;;-3.61;69.20
47636;BME280;33364;50.766;15.338;2023-02-04T06:00:59;95715.13;;;-3.67;69.44
47636;BME280;33364;50.766;15.338;2023-02-04T06:03:26;95730.28;;;-3.63;69.17
47636;BME280;33364;50.766;15.338;2023-02-04T06:05:52;95739.44;;;-3.78;69.49
47636;BME280;33364;50.766;15.338;2023-02-04T06:08:18;95735.50;;;-3.73;69.36
47636;BME280;33364;50.766;15.338;2023-02-04T06:10:44;95748.06;;;-3.68;69.65
47636;BME280;33364;50.766;15.338;2023-02-04T06:13:09;95755.28;;;-3.81;68.88
47636;BME280;33364;50.766;15.338;2023-02-04T06:15:35;95759.53;;;-3.80;69.00
47636;BME280;33364;50.766;15.338;2023-02-04T06:18:01;95765.69;;;-3.81;69.75
47636;BME280;33364;50.766;15.338;2023-02-04T06:20:27;95773.88;;;-3.86;70.61
47636;BME280;33364;50.766;15.338;2023-02-04T06:22:53;95785.91;;;-3.75;68.60
47636;BME280;33364;50.766;15.338;2023-02-04T06:25:20;95801.25;;;-3.72;67.92
47636;BME280;33364;50.766;15.338;2023-02-04T06:27:45;95795.63;;;-3.87;67.32
47636;BME280;33364;50.766;15.338;2023-02-04T06:30:12;95807.19;;;-3.91;68.27
47636;BME280;33364;50.766;15.338;2023-02-04T06:32:38;95811.75;;;-3.74;69.83
47636;BME280;33364;50.766;15.338;2023-02-04T06:35:04;95825.56;;;-3.73;68.38
47636;BME280;33364;50.766;15.338;2023-02-04T06:37:30;95831.84;;;-3.76;67.96
47636;BME280;33364;50.766;15.338;2023-02-04T06:39:56;95840.75;;;-3.59;69.19
47636;BME280;33364;50.766;15.338;2023-02-04T06:42:23;95835.81;;;-3.62;67.72
47636;BME280;33364;50.766;15.338;2023-02-04T06:44:52;95839.38;;;-3.73;68.36
47636;BME280;33364;50.766;15.338;2023-02-04T06:47:18;95856.44;;;-3.70;70.49
47636;BME280;33364;50.766;15.338;2023-02-04T06:49:45;95846.44;;;-3.84;67.74
47636;BME280;33364;50.766;15.338;2023-02-04T06:52:11;95853.00;;;-3.90;68.35
47636;BME280;33364;50.766;15.338;2023-02-04T06:54:38;95861.50;;;-3.78;68.08
47636;BME280;33364;50.766;15.338;2023-02-04T06:57:04;95877.06;;;-3.78;68.20
47636;BME280;33364;50.766;15.338;2023-02-04T06:59:34;95883.66;;;-3.74;68.88
47636;BME280;33364;50.766;15.338;2023-02-04T07:02:00;95875.97;;;-3.85;68.78
47636;BME280;33364;50.766;15.338;2023-02-04T07:04:26;95897.81;;;-3.88;68.24
47636;BME280;33364;50.766;15.338;2023-02-04T07:06:52;95897.69;;;-3.87;68.09
47636;BME280;33364;50.766;15.338;2023-02-04T07:09:18;95893.31;;;-3.86;69.24
47636;BME280;33364;50.766;15.338;2023-02-04T07:11:43;95896.16;;;-3.89;69.50
47636;BME280;33364;50.766;15.338;2023-02-04T07:14:10;95900.84;;;-3.83;69.28
47636;BME280;33364;50.766;15.338;2023-02-04T07:16:36;95904.66;;;-3.87;70.01
47636;BME280;33364;50.766;15.338;2023-02-04T07:19:02;95913.41;;;-3.88;68.70
47636;BME280;33364;50.766;15.338;2023-02-04T07:21:28;95913.41;;;-3.88;69.11
47636;BME280;33364;50.766;15.338;2023-02-04T07:23:54;95925.03;;;-3.82;69.42
47636;BME280;33364;50.766;15.338;2023-02-04T07:26:20;95932.84;;;-3.82;70.42
47636;BME280;33364;50.766;15.338;2023-02-04T07:28:46;95939.91;;;-3.84;69.65
47636;BME280;33364;50.766;15.338;2023-02-04T07:31:13;95942.03;;;-3.69;71.91
47636;BME280;33364;50.766;15.338;2023-02-04T07:33:39;95963.78;;;-3.60;71.08
47636;BME280;33364;50.766;15.338;2023-02-04T07:36:05;95966.47;;;-3.71;68.64
47636;BME280;33364;50.766;15.338;2023-02-04T07:38:31;95961.41;;;-3.82;69.06
47636;BME280;33364;50.766;15.338;2023-02-04T07:40:57;95964.69;;;-3.80;68.99
47636;BME280;33364;50.766;15.338;2023-02-04T07:43:23;95971.97;;;-3.74;68.82
47636;BME280;33364;50.766;15.338;2023-02-04T07:45:48;95974.97;;;-3.69;68.94
47636;BME280;33364;50.766;15.338;2023-02-04T07:48:14;95990.03;;;-3.63;67.76
47636;BME280;33364;50.766;15.338;2023-02-04T07:50:40;95993.03;;;-3.67;67.11
47636;BME280;33364;50.766;15.338;2023-02-04T07:53:06;96002.88;;;-3.61;67.07
47636;BME280;33364;50.766;15.338;2023-02-04T07:55:32;95995.03;;;-3.71;68.18
47636;BME280;33364;50.766;15.338;2023-02-04T07:57:58;95993.97;;;-3.69;66.11
47636;BME280;33364;50.766;15.338;2023-02-04T08:00:23;95996.91;;;-3.52;65.68
47636;BME280;33364;50.766;15.338;2023-02-04T08:02:49;96008.13;;;-3.52;66.44
47636;BME280;33364;50.766;15.338;2023-02-04T08:05:15;95997.06;;;-3.44;66.56
47636;BME280;33364;50.766;15.338;2023-02-04T08:07:41;96001.72;;;-3.47;66.64
47636;BME280;33364;50.766;15.338;2023-02-04T08:10:08;96021.84;;;-3.40;66.40
47636;BME280;33364;50.766;15.338;2023-02-04T08:12:34;96021.59;;;-3.37;67.11
47636;BME280;33364;50.766;15.338;2023-02-04T08:15:00;96030.63;;;-3.31;66.84
47636;BME280;33364;50.766;15.338;2023-02-04T08:17:26;96040.66;;;-3.17;67.83
47636;BME280;33364;50.766;15.338;2023-02-04T08:19:52;96041.34;;;-3.15;69.38
47636;BME280;33364;50.766;15.338;2023-02-04T08:22:18;96049.97;;;-3.14;68.09
47636;BME280;33364;50.766;15.338;2023-02-04T08:24:44;96053.00;;;-2.99;69.00
47636;BME280;33364;50.766;15.338;2023-02-04T08:27:10;96060.00;;;-3.00;67.12
47636;BME280;33364;50.766;15.338;2023-02-04T08:29:36;96066.31;;;-3.02;68.11
47636;BME280;33364;50.766;15.338;2023-02-04T08:32:02;96063.41;;;-2.99;67.53
47636;BME280;33364;50.766;15.338;2023-02-04T08:34:28;96064.41;;;-2.90;68.24
47636;BME280;33364;50.766;15.338;2023-02-04T08:36:54;96069.88;;;-2.93;66.56
47636;BME280;33364;50.766;15.338;2023-02-04T08:39:20;96067.97;;;-2.91;67.49
47636;BME280;33364;50.766;15.338;2023-02-04T08:41:46;96069.59;;;-3.00;66.22
47636;BME280;33364;50.766;15.338;2023-02-04T08:44:14;96071.81;;;-2.86;66.62
47636;BME280;33364;50.766;15.338;2023-02-04T08:46:40;96069.47;;;-2.99;67.03
47636;BME280;33364;50.766;15.338;2023-02-04T08:49:06;96085.16;;;-3.10;67.09
47636;BME280;33364;50.766;15.338;2023-02-04T08:51:32;96093.19;;;-3.23;67.38
47636;BME280;33364;50.766;15.338;2023-02-04T08:53:57;96085.28;;;-3.11;67.38
47636;BME280;33364;50.766;15.338;2023-02-04T08:56:23;96085.28;;;-3.11;66.65
47636;BME280;33364;50.766;15.338;2023-02-04T08:58:49;96098.16;;;-2.69;67.62
47636;BME280;33364;50.766;15.338;2023-02-04T09:01:18;96100.66;;;-2.48;65.87
47636;BME280;33364;50.766;15.338;2023-02-04T09:03:43;96099.28;;;-2.23;66.00
47636;BME280;33364;50.766;15.338;2023-02-04T09:06:10;96102.84;;;-2.34;64.39
47636;BME280;33364;50.766;15.338;2023-02-04T09:08:36;96096.13;;;-2.36;64.15
47636;BME280;33364;50.766;15.338;2023-02-04T09:11:02;96103.28;;;-2.38;64.95
47636;BME280;33364;50.766;15.338;2023-02-04T09:13:29;96110.66;;;-2.24;63.49
47636;BME280;33364;50.766;15.338;2023-02-04T09:15:55;96118.19;;;-2.21;63.45
47636;BME280;33364;50.766;15.338;2023-02-04T09:18:21;96122.59;;;-2.22;66.65
47636;BME280;33364;50.766;15.338;2023-02-04T09:20:48;96127.00;;;-2.22;63.57
47636;BME280;33364;50.766;15.338;2023-02-04T09:23:14;96135.88;;;-2.34;62.74
47636;BME280;33364;50.766;15.338;2023-02-04T09:25:42;96150.88;;;-2.58;66.01
47636;BME280;33364;50.766;15.338;2023-02-04T09:28:08;96155.84;;;-2.45;64.56
47636;BME280;33364;50.766;15.338;2023-02-04T09:30:37;96163.84;;;-2.27;64.81
47636;BME280;33364;50.766;15.338;2023-02-04T09:33:02;96167.53;;;-2.29;63.21
47636;BME280;33364;50.766;15.338;2023-02-04T09:35:28;96173.88;;;-2.12;65.95
47636;BME280;33364;50.766;15.338;2023-02-04T09:37:54;96174.56;;;-2.00;65.24
47636;BME280;33364;50.766;15.338;2023-02-04T09:40:20;96183.47;;;-1.83;63.42
47636;BME280;33364;50.766;15.338;2023-02-04T09:42:47;96193.34;;;-1.87;64.01
47636;BME280;33364;50.766;15.338;2023-02-04T09:45:34;96194.28;;;-1.88;62.16
47636;BME280;33364;50.766;15.338;2023-02-04T09:48:03;96209.38;;;-1.92;63.87
47636;BME280;33364;50.766;15.338;2023-02-04T09:50:30;96208.97;;;-1.87;63.99
47636;BME280;33364;50.766;15.338;2023-02-04T09:52:59;96216.66;;;-1.95;63.96
47636;BME280;33364;50.766;15.338;2023-02-04T09:55:29;96219.38;;;-2.07;62.96
47636;BME280;33364;50.766;15.338;2023-02-04T09:57:55;96218.69;;;-2.09;64.09
47636;BME280;33364;50.766;15.338;2023-02-04T10:00:24;96227.84;;;-2.14;63.29
47636;BME280;33364;50.766;15.338;2023-02-04T10:02:51;96227.28;;;-2.18;66.17
47636;BME280;33364;50.766;15.338;2023-02-04T10:05:20;96240.34;;;-1.98;64.24
47636;BME280;33364;50.766;15.338;2023-02-04T10:07:49;96234.44;;;-2.10;63.85
47636;BME280;33364;50.766;15.338;2023-02-04T10:10:17;96234.22;;;-1.88;62.76
47636;BME280;33364;50.766;15.338;2023-02-04T10:12:44;96235.44;;;-1.82;63.36
47636;BME280;33364;50.766;15.338;2023-02-04T10:15:15;96226.53;;;-1.79;62.56
47636;BME280;33364;50.766;15.338;2023-02-04T10:17:47;96236.69;;;-1.86;62.40
47636;BME280;33364;50.766;15.338;2023-02-04T10:20:18;96239.84;;;-1.82;62.59
47636;BME280;33364;50.766;15.338;2023-02-04T10:22:45;96239.00;;;-1.93;62.59
47636;BME280;33364;50.766;15.338;2023-02-04T10:25:17;96236.53;;;-1.94;62.52
47636;BME280;33364;50.766;15.338;2023-02-04T10:27:47;96239.84;;;-1.82;62.79
47636;BME280;33364;50.766;15.338;2023-02-04T10:30:19;96231.75;;;-1.89;62.95
47636;BME280;33364;50.766;15.338;2023-02-04T10:32:46;96237.50;;;-1.86;63.06
47636;BME280;33364;50.766;15.338;2023-02-04T10:35:15;96239.84;;;-1.73;64.15
47636;BME280;33364;50.766;15.338;2023-02-04T10:37:40;96243.41;;;-1.54;63.68
47636;BME280;33364;50.766;15.338;2023-02-04T10:40:42;96244.66;;;-1.39;61.40
47636;BME280;33364;50.766;15.338;2023-02-04T10:43:16;96253.16;;;-1.37;62.97
47636;BME280;33364;50.766;15.338;2023-02-04T10:45:56;96264.41;;;-1.56;62.16
47636;BME280;33364;50.766;15.338;2023-02-04T10:48:22;96264.66;;;-1.69;64.39
47636;BME280;33364;50.766;15.338;2023-02-04T10:50:48;96268.09;;;-1.78;63.22
47636;BME280;33364;50.766;15.338;2023-02-04T10:53:16;96273.44;;;-1.70;66.12
47636;BME280;33364;50.766;15.338;2023-02-04T10:56:01;96275.38;;;-1.62;63.00
47636;BME280;33364;50.766;15.338;2023-02-04T10:58:29;96269.75;;;-1.38;63.24
47636;BME280;33364;50.766;15.338;2023-02-04T11:00:55;96273.34;;;-1.19;61.61
47636;BME280;33364;50.766;15.338;2023-02-04T11:03:23;96277.97;;;-1.03;60.89
47636;BME280;33364;50.766;15.338;2023-02-04T11:05:51;96274.50;;;-0.84;60.90
47636;BME280;33364;50.766;15.338;2023-02-04T11:08:31;96268.63;;;-0.96;60.46
47636;BME280;33364;50.766;15.338;2023-02-04T11:10:59;96273.75;;;-1.14;60.30
47636;BME280;33364;50.766;15.338;2023-02-04T11:16:45;96280.59;;;-1.13;65.51
47636;BME280;33364;50.766;15.338;2023-02-04T11:19:11;96285.25;;;-0.97;69.08
47636;BME280;33364;50.766;15.338;2023-02-04T11:26:44;96289.19;;;-0.64;63.19
47636;BME280;33364;50.766;15.338;2023-02-04T11:29:30;96287.81;;;-0.68;59.98
47636;BME280;33364;50.766;15.338;2023-02-04T11:32:04;96282.63;;;-0.87;59.95
47636;BME280;33364;50.766;15.338;2023-02-04T11:34:42;96285.50;;;-0.90;61.65
47636;BME280;33364;50.766;15.338;2023-02-04T11:39:57;96294.47;;;-1.13;60.11
47636;BME280;33364;50.766;15.338;2023-02-04T11:42:31;96292.00;;;-1.24;61.09
47636;BME280;33364;50.766;15.338;2023-02-04T11:45:12;96301.16;;;-1.49;61.26
47636;BME280;33364;50.766;15.338;2023-02-04T11:47:39;96314.31;;;-1.70;62.24
47636;BME280;33364;50.766;15.338;2023-02-04T11:50:23;96319.66;;;-1.72;62.07
47636;BME280;33364;50.766;15.338;2023-02-04T11:52:52;96323.94;;;-1.61;59.76
47636;BME280;33364;50.766;15.338;2023-02-04T11:55:18;96318.22;;;-1.35;60.44
47636;BME280;33364;50.766;15.338;2023-02-04T11:57:44;96314.75;;;-1.06;62.14
47636;BME280;33364;50.766;15.338;2023-02-04T12:00:19;96325.75;;;-0.83;60.88
47636;BME280;33364;50.766;15.338;2023-02-04T12:02:48;96324.09;;;-1.04;59.87
47636;BME280;33364;50.766;15.338;2023-02-04T12:05:18;96319.16;;;-0.87;60.29
47636;BME280;33364;50.766;15.338;2023-02-04T12:07:46;96323.69;;;-0.99;59.32
47636;BME280;33364;50.766;15.338;2023-02-04T12:12:48;96318.75;;;-1.02;59.40
47636;BME280;33364;50.766;15.338;2023-02-04T12:15:19;96328.06;;;-0.80;60.55
47636;BME280;33364;50.766;15.338;2023-02-04T12:18:08;96321.50;;;-0.94;62.45
47636;BME280;33364;50.766;15.338;2023-02-04T12:20:37;96324.78;;;-0.82;60.70
47636;BME280;33364;50.766;15.338;2023-02-04T12:23:04;96315.47;;;-1.14;58.91
47636;BME280;33364;50.766;15.338;2023-02-04T12:25:30;96330.72;;;-1.19;61.35
47636;BME280;33364;50.766;15.338;2023-02-04T12:27:56;96327.81;;;-1.45;62.86
47636;BME280;33364;50.766;15.338;2023-02-04T12:30:24;96324.22;;;-1.44;64.74
47636;BME280;33364;50.766;15.338;2023-02-04T12:32:52;96325.63;;;-1.31;66.08
47636;BME280;33364;50.766;15.338;2023-02-04T12:35:19;96333.59;;;-1.22;67.56
47636;BME280;33364;50.766;15.338;2023-02-04T12:37:46;96336.59;;;-1.17;65.76
47636;BME280;33364;50.766;15.338;2023-02-04T12:40:15;96338.50;;;-1.00;66.79
47636;BME280;33364;50.766;15.338;2023-02-04T12:42:42;96335.47;;;-0.85;64.65
47636;BME280;33364;50.766;15.338;2023-02-04T12:45:09;96338.50;;;-1.00;63.61
47636;BME280;33364;50.766;15.338;2023-02-04T12:47:36;96340.16;;;-1.28;65.53
47636;BME280;33364;50.766;15.338;2023-02-04T12:50:02;96351.97;;;-1.24;64.84
47636;BME280;33364;50.766;15.338;2023-02-04T12:52:28;96342.50;;;-1.15;66.49
47636;BME280;33364;50.766;15.338;2023-02-04T12:54:54;96345.78;;;-1.13;65.37
47636;BME280;33364;50.766;15.338;2023-02-04T12:57:21;96350.84;;;-0.63;67.68
47636;BME280;33364;50.766;15.338;2023-02-04T12:59:46;96346.28;;;-0.51;61.65
47636;BME280;33364;50.766;15.338;2023-02-04T13:02:14;96358.00;;;-0.75;61.89
47636;BME280;33364;50.766;15.338;2023-02-04T13:04:43;96347.84;;;-0.87;62.62